Hiram, Arkansas
Current Conditions -  °F | °C
As of 7:56 AM on Friday 19 Dec 2014 (Local Time) from KSRC Reporting Station
Haze Haze  
Wind Chill: 34°   Ceiling: 900
Heat Index: 40°   Visibility: 5mi
Dew Point: 37°   Wind: 9mph
Humidity: 89%   Direction: 30°NNE
Pressure: 30.28"   Gusts: NA
Location:  35.4452°N, 91.9033°W
Report Text: KSRC 191356Z AUTO 03008KT 5SM BR BKN009 BKN025 OVC050 04/03 A3028 RMK AO2 SLP260 T00440028 TSNO
Loading
Personal Weather Stations






























Interactive Weather Map New forecast layout! Learn more

10-Day Weather Forecast

Advertisements
Track Severe Weather on mobile